createdAt,value
2019-03-20T00:00:03.208Z,77
2019-03-20T00:01:03.374Z,77
2019-03-20T00:02:03.546Z,77
2019-03-20T00:03:03.573Z,77
2019-03-20T00:04:03.631Z,77
2019-03-20T00:05:03.890Z,77
2019-03-20T00:06:02.808Z,77
2019-03-20T00:07:03.593Z,77
2019-03-20T00:08:03.051Z,77
2019-03-20T00:09:03.362Z,77
2019-03-20T00:10:03.171Z,77
2019-03-20T00:11:03.653Z,77
2019-03-20T00:12:02.950Z,77
2019-03-20T00:13:03.767Z,77
2019-03-20T00:14:02.913Z,77
2019-03-20T00:15:03.196Z,77
2019-03-20T00:16:03.080Z,77
2019-03-20T00:17:04.234Z,77
2019-03-20T00:18:03.276Z,77
2019-03-20T00:19:02.943Z,77
2019-03-20T00:20:03.603Z,77
2019-03-20T00:21:03.439Z,77
2019-03-20T00:22:03.405Z,77
2019-03-20T00:23:03.478Z,77
2019-03-20T00:24:02.880Z,77
2019-03-20T00:25:02.963Z,77
2019-03-20T00:26:02.884Z,77
2019-03-20T00:27:03.229Z,77
2019-03-20T00:28:03.171Z,77
2019-03-20T00:29:03.583Z,77
2019-03-20T00:30:03.163Z,77
2019-03-20T00:31:02.739Z,77
2019-03-20T00:32:03.470Z,77
2019-03-20T00:33:03.372Z,77
2019-03-20T00:34:03.648Z,77
2019-03-20T00:35:03.054Z,77
2019-03-20T00:36:02.870Z,77
2019-03-20T00:37:02.810Z,77
2019-03-20T00:38:03.477Z,77
2019-03-20T00:39:03.731Z,77
2019-03-20T00:40:03.234Z,77
2019-03-20T00:41:02.708Z,77
2019-03-20T00:42:03.749Z,77
2019-03-20T00:43:03.168Z,77
2019-03-20T00:44:03.518Z,78
2019-03-20T00:45:03.408Z,78
2019-03-20T00:46:03.592Z,78
2019-03-20T00:47:03.017Z,78
2019-03-20T00:48:03.491Z,78
2019-03-20T00:49:03.168Z,78
2019-03-20T00:50:03.302Z,78
2019-03-20T00:51:02.961Z,78
2019-03-20T00:52:02.992Z,78
2019-03-20T00:53:03.539Z,78
2019-03-20T00:54:03.244Z,78
2019-03-20T00:55:03.628Z,78
2019-03-20T00:56:02.838Z,78
2019-03-20T00:57:03.525Z,78
2019-03-20T00:58:02.994Z,78
2019-03-20T00:59:03.193Z,78
2019-03-20T01:00:03.212Z,78
2019-03-20T01:01:03.105Z,78
2019-03-20T01:02:03.302Z,78
2019-03-20T01:03:02.913Z,78
2019-03-20T01:04:03.083Z,78
2019-03-20T01:05:13.020Z,78
2019-03-20T01:06:03.025Z,78
2019-03-20T01:07:02.931Z,78
2019-03-20T01:08:02.926Z,78
2019-03-20T01:09:02.978Z,78
2019-03-20T01:10:02.981Z,78
2019-03-20T01:11:03.216Z,78
2019-03-20T01:12:03.121Z,78
2019-03-20T01:13:02.973Z,78
2019-03-20T01:14:02.795Z,78
2019-03-20T01:15:03.254Z,78
2019-03-20T01:16:02.850Z,78
2019-03-20T01:17:02.982Z,78
2019-03-20T01:18:02.844Z,78
2019-03-20T01:19:03.025Z,78
2019-03-20T01:20:03.005Z,78
2019-03-20T01:21:03.880Z,78
2019-03-20T01:22:03.735Z,78
2019-03-20T01:23:03.224Z,78
2019-03-20T01:24:02.935Z,78
2019-03-20T01:25:03.004Z,78
2019-03-20T01:26:02.867Z,78
2019-03-20T01:27:02.893Z,78
2019-03-20T01:28:03.647Z,78
2019-03-20T01:29:03.794Z,78
2019-03-20T01:30:03.536Z,78
2019-03-20T01:31:03.510Z,78
2019-03-20T01:32:03.379Z,78
2019-03-20T01:33:03.408Z,79
2019-03-20T01:34:03.820Z,79
2019-03-20T01:35:03.632Z,78
2019-03-20T01:36:03.562Z,78
2019-03-20T01:37:03.763Z,78
2019-03-20T01:38:03.375Z,78
2019-03-20T01:39:03.259Z,79
2019-03-20T01:40:03.522Z,79
2019-03-20T01:41:03.445Z,79
2019-03-20T01:42:03.261Z,79
2019-03-20T01:43:03.351Z,79
2019-03-20T01:44:03.328Z,79
2019-03-20T01:45:03.188Z,79
2019-03-20T01:46:03.498Z,79
2019-03-20T01:47:03.207Z,79
2019-03-20T01:48:03.489Z,79
2019-03-20T01:49:03.246Z,79
2019-03-20T01:50:03.431Z,79
2019-03-20T01:51:03.329Z,79
2019-03-20T01:52:03.202Z,79
2019-03-20T01:53:03.305Z,79
2019-03-20T01:54:03.706Z,79
2019-03-20T01:55:03.356Z,79
2019-03-20T01:56:03.275Z,79
2019-03-20T01:57:03.367Z,79
2019-03-20T01:58:03.281Z,79
2019-03-20T01:59:03.179Z,79
2019-03-20T02:00:03.143Z,79
2019-03-20T02:01:02.846Z,79
2019-03-20T02:02:02.881Z,79
2019-03-20T02:03:02.810Z,79
2019-03-20T02:04:02.762Z,79
2019-03-20T02:05:02.821Z,79
2019-03-20T02:06:02.712Z,79
2019-03-20T02:07:03.125Z,79
2019-03-20T02:08:03.054Z,79
2019-03-20T02:09:02.851Z,79
2019-03-20T02:10:03.192Z,79
2019-03-20T02:11:03.013Z,79
2019-03-20T02:12:02.873Z,79
2019-03-20T02:13:03.019Z,79
2019-03-20T02:14:02.970Z,79
2019-03-20T02:15:03.282Z,79
2019-03-20T02:16:02.593Z,79
2019-03-20T02:17:03.011Z,79
2019-03-20T02:18:02.909Z,79
2019-03-20T02:19:03.119Z,79
2019-03-20T02:20:02.874Z,79
2019-03-20T02:21:02.933Z,79
2019-03-20T02:22:03.056Z,79
2019-03-20T02:23:02.677Z,79
2019-03-20T02:24:02.939Z,79
2019-03-20T02:25:03.615Z,79
2019-03-20T02:26:03.494Z,79
2019-03-20T02:27:03.523Z,79
2019-03-20T02:28:02.997Z,79
2019-03-20T02:29:03.736Z,79
2019-03-20T02:30:02.710Z,79
2019-03-20T02:31:02.905Z,79
2019-03-20T02:32:02.751Z,79
2019-03-20T02:33:02.767Z,79
2019-03-20T02:34:02.951Z,79
2019-03-20T02:35:03.128Z,79
2019-03-20T02:36:03.752Z,80
2019-03-20T02:37:03.015Z,80
2019-03-20T02:38:03.778Z,80
2019-03-20T02:39:02.765Z,80
2019-03-20T02:40:02.906Z,80
2019-03-20T02:41:03.068Z,80
2019-03-20T02:42:02.918Z,79
2019-03-20T02:43:03.636Z,80
2019-03-20T02:44:02.918Z,80
2019-03-20T02:45:02.650Z,80
2019-03-20T02:46:02.624Z,80
2019-03-20T02:47:03.573Z,80
2019-03-20T02:48:03.782Z,80
2019-03-20T02:49:03.594Z,80
2019-03-20T02:50:03.711Z,80
2019-03-20T02:51:03.508Z,80
2019-03-20T02:52:04.414Z,80
2019-03-20T02:53:04.124Z,80
2019-03-20T02:54:03.603Z,80
2019-03-20T02:55:03.802Z,80
2019-03-20T02:56:03.600Z,80
2019-03-20T02:57:03.487Z,80
2019-03-20T02:58:03.813Z,80
2019-03-20T02:59:02.747Z,80
2019-03-20T03:00:03.927Z,80
2019-03-20T03:01:02.730Z,80
2019-03-20T03:02:02.949Z,80
2019-03-20T03:03:03.516Z,80
2019-03-20T03:04:03.313Z,80
2019-03-20T03:05:03.645Z,80
2019-03-20T03:06:07.600Z,80
2019-03-20T03:07:03.319Z,80
2019-03-20T03:08:03.547Z,80
2019-03-20T03:09:03.508Z,80
2019-03-20T03:10:03.554Z,80
2019-03-20T03:11:03.290Z,80
2019-03-20T03:12:03.737Z,80
2019-03-20T03:13:03.607Z,80
2019-03-20T03:14:03.486Z,80
2019-03-20T03:15:02.751Z,80
2019-03-20T03:16:03.253Z,80
2019-03-20T03:17:03.469Z,80
2019-03-20T03:18:03.521Z,80
2019-03-20T03:19:03.318Z,80
2019-03-20T03:20:03.520Z,80
2019-03-20T03:21:03.505Z,80
2019-03-20T03:22:03.422Z,80
2019-03-20T03:23:03.388Z,80
2019-03-20T03:24:03.411Z,80
2019-03-20T03:25:03.398Z,80
2019-03-20T03:26:03.414Z,80
2019-03-20T03:27:03.204Z,80
2019-03-20T03:28:03.381Z,80
2019-03-20T03:29:03.345Z,80
2019-03-20T03:30:03.477Z,81
2019-03-20T03:31:03.359Z,81
2019-03-20T03:32:03.322Z,81
2019-03-20T03:33:03.514Z,81
2019-03-20T03:34:03.202Z,81
2019-03-20T03:35:03.371Z,81
2019-03-20T03:36:03.517Z,81
2019-03-20T03:37:03.476Z,81
2019-03-20T03:38:03.485Z,81
2019-03-20T03:39:03.519Z,81
2019-03-20T03:40:03.517Z,81
2019-03-20T03:41:03.214Z,81
2019-03-20T03:42:02.945Z,81
2019-03-20T03:43:03.312Z,81
2019-03-20T03:44:02.941Z,81
2019-03-20T03:45:03.141Z,81
2019-03-20T03:46:03.145Z,81
2019-03-20T03:47:03.269Z,81
2019-03-20T03:48:03.129Z,81
2019-03-20T03:49:02.871Z,81
2019-03-20T03:50:03.443Z,81
2019-03-20T03:51:03.145Z,81
2019-03-20T03:52:03.258Z,81
2019-03-20T03:53:03.107Z,81
2019-03-20T03:54:02.950Z,81
2019-03-20T03:55:03.073Z,81
2019-03-20T03:56:03.121Z,81
2019-03-20T03:57:03.129Z,81
2019-03-20T03:58:03.169Z,81
2019-03-20T03:59:03.054Z,81
2019-03-20T04:00:02.996Z,81
2019-03-20T04:01:02.925Z,81
2019-03-20T04:02:03.130Z,81
2019-03-20T04:03:02.956Z,81
2019-03-20T04:04:03.007Z,81
2019-03-20T04:05:03.746Z,81
2019-03-20T04:06:02.763Z,81
2019-03-20T04:07:02.820Z,81
2019-03-20T04:08:02.957Z,81
2019-03-20T04:09:03.499Z,81
2019-03-20T04:10:02.787Z,81
2019-03-20T04:11:02.783Z,81
2019-03-20T04:12:03.340Z,81
2019-03-20T04:13:03.094Z,81
2019-03-20T04:14:02.730Z,81
2019-03-20T04:15:03.158Z,81
2019-03-20T04:16:02.586Z,81
2019-03-20T04:17:03.039Z,81
2019-03-20T04:18:02.743Z,81
2019-03-20T04:19:02.991Z,81
2019-03-20T04:20:03.522Z,81
2019-03-20T04:21:03.838Z,81
2019-03-20T04:22:02.744Z,81
2019-03-20T04:23:03.694Z,81
2019-03-20T04:24:02.868Z,81
2019-03-20T04:25:03.753Z,81
2019-03-20T04:26:02.897Z,81
2019-03-20T04:27:03.765Z,81
2019-03-20T04:28:03.067Z,81
2019-03-20T04:29:03.525Z,81
2019-03-20T04:30:03.560Z,81
2019-03-20T04:31:03.731Z,81
2019-03-20T04:32:02.868Z,81
2019-03-20T04:33:02.893Z,81
2019-03-20T04:34:03.545Z,81
2019-03-20T04:35:03.763Z,81
2019-03-20T04:36:03.665Z,81
2019-03-20T04:37:03.567Z,81
2019-03-20T04:38:03.433Z,81
2019-03-20T04:39:03.778Z,81
2019-03-20T04:40:03.530Z,81
2019-03-20T04:41:03.757Z,81
2019-03-20T04:42:03.535Z,81
2019-03-20T04:43:02.952Z,81
2019-03-20T04:44:03.525Z,81
2019-03-20T04:45:03.721Z,81
2019-03-20T04:46:03.546Z,81
2019-03-20T04:47:03.417Z,81
2019-03-20T04:48:02.465Z,81
2019-03-20T04:49:03.558Z,81
2019-03-20T04:50:03.790Z,81
2019-03-20T04:51:03.481Z,81
2019-03-20T04:52:03.774Z,81
2019-03-20T04:53:03.454Z,81
2019-03-20T04:54:03.598Z,81
2019-03-20T04:55:03.252Z,81
2019-03-20T04:56:03.401Z,81
2019-03-20T04:57:03.716Z,81
2019-03-20T04:58:03.021Z,81
2019-03-20T04:59:03.497Z,81
2019-03-20T05:00:03.359Z,81
2019-03-20T05:01:03.310Z,81
2019-03-20T05:02:03.046Z,81
2019-03-20T05:03:03.390Z,81
2019-03-20T05:04:03.286Z,81
2019-03-20T05:05:03.502Z,81
2019-03-20T05:06:03.185Z,81
2019-03-20T05:07:03.430Z,81
2019-03-20T05:08:03.083Z,81
2019-03-20T05:09:03.065Z,81
2019-03-20T05:10:03.425Z,81
2019-03-20T05:11:02.854Z,81
2019-03-20T05:12:03.243Z,81
2019-03-20T05:13:02.907Z,81
2019-03-20T05:14:03.049Z,81
2019-03-20T05:15:03.007Z,81
2019-03-20T05:16:03.049Z,81
2019-03-20T05:17:02.965Z,81
2019-03-20T05:18:03.030Z,81
2019-03-20T05:19:03.027Z,81
2019-03-20T05:20:02.768Z,81
2019-03-20T05:21:02.887Z,81
2019-03-20T05:22:02.854Z,81
2019-03-20T05:23:02.926Z,81
2019-03-20T05:24:03.634Z,81
2019-03-20T05:25:03.944Z,81
2019-03-20T05:26:03.676Z,81
2019-03-20T05:27:03.720Z,81
2019-03-20T05:28:03.611Z,81
2019-03-20T05:29:03.776Z,81
2019-03-20T05:30:03.709Z,81
2019-03-20T05:31:03.720Z,81
2019-03-20T05:32:04.628Z,81
2019-03-20T05:33:03.495Z,81
2019-03-20T05:34:03.567Z,81
2019-03-20T05:35:03.569Z,81
2019-03-20T05:36:03.798Z,81
2019-03-20T05:37:11.150Z,81
2019-03-20T05:38:03.774Z,81
2019-03-20T05:39:03.639Z,81
2019-03-20T05:40:03.489Z,81
2019-03-20T05:41:03.486Z,81
2019-03-20T05:42:03.420Z,81
2019-03-20T05:43:03.395Z,81
2019-03-20T05:44:03.652Z,81
2019-03-20T05:45:03.472Z,81
2019-03-20T05:46:03.015Z,81
2019-03-20T05:47:03.628Z,81
2019-03-20T05:48:03.481Z,81
2019-03-20T05:49:03.441Z,81
2019-03-20T05:50:03.478Z,81
2019-03-20T05:51:03.607Z,81
2019-03-20T05:52:03.465Z,81
2019-03-20T05:53:03.442Z,81
2019-03-20T05:54:03.333Z,81
2019-03-20T05:55:03.388Z,81
2019-03-20T05:56:03.288Z,81
2019-03-20T05:57:03.288Z,81
2019-03-20T05:58:03.229Z,81
2019-03-20T05:59:03.199Z,81
2019-03-20T06:00:03.581Z,81
2019-03-20T06:01:02.928Z,81
2019-03-20T06:02:03.366Z,81
2019-03-20T06:03:03.291Z,81
2019-03-20T06:04:03.052Z,81
2019-03-20T06:05:03.023Z,81
2019-03-20T06:06:03.396Z,81
2019-03-20T06:07:03.214Z,81
2019-03-20T06:08:03.209Z,81
2019-03-20T06:09:03.131Z,81
2019-03-20T06:10:03.445Z,81
2019-03-20T06:11:03.400Z,81
2019-03-20T06:12:04.089Z,81
2019-03-20T06:13:03.534Z,81
2019-03-20T06:14:03.662Z,81
2019-03-20T06:15:03.809Z,81
2019-03-20T06:16:03.614Z,81
2019-03-20T06:17:03.915Z,81
2019-03-20T06:18:03.124Z,81
2019-03-20T06:19:03.119Z,81
2019-03-20T06:20:03.347Z,81
2019-03-20T06:21:03.673Z,81
2019-03-20T06:22:03.647Z,81
2019-03-20T06:23:03.270Z,81
2019-03-20T06:24:03.346Z,81
2019-03-20T06:25:02.874Z,81
2019-03-20T06:26:03.533Z,81
2019-03-20T06:27:03.882Z,81
2019-03-20T06:28:02.810Z,81
2019-03-20T06:29:03.242Z,81
2019-03-20T06:30:03.078Z,81
2019-03-20T06:31:03.098Z,81
2019-03-20T06:32:03.310Z,81
2019-03-20T06:33:03.166Z,81
2019-03-20T06:34:03.183Z,81
2019-03-20T06:35:03.057Z,81
2019-03-20T06:36:03.103Z,81
2019-03-20T06:37:03.436Z,81
2019-03-20T06:38:03.533Z,81
2019-03-20T06:39:05.223Z,81
2019-03-20T06:40:03.434Z,81
2019-03-20T06:41:02.899Z,81
2019-03-20T06:42:03.208Z,80
2019-03-20T06:43:03.533Z,80
2019-03-20T06:44:03.008Z,80
2019-03-20T06:45:03.466Z,80
2019-03-20T06:46:03.423Z,80
2019-03-20T06:47:03.517Z,80
2019-03-20T06:48:03.313Z,80
2019-03-20T06:49:03.515Z,80
2019-03-20T06:50:03.362Z,80
2019-03-20T06:51:03.563Z,80
2019-03-20T06:52:03.039Z,80
2019-03-20T06:53:03.831Z,80
2019-03-20T06:54:03.972Z,80
2019-03-20T06:55:03.830Z,80
2019-03-20T06:56:02.760Z,80
2019-03-20T06:57:02.938Z,80
2019-03-20T06:58:03.721Z,80
2019-03-20T06:59:03.848Z,79
2019-03-20T07:00:05.718Z,79
2019-03-20T07:01:02.919Z,79
2019-03-20T07:02:02.872Z,79
2019-03-20T07:03:03.022Z,79
2019-03-20T07:04:02.959Z,79
2019-03-20T07:05:03.843Z,79
2019-03-20T07:06:02.703Z,79
2019-03-20T07:07:03.147Z,79
2019-03-20T07:08:03.285Z,79
2019-03-20T07:09:03.253Z,79
2019-03-20T07:10:03.184Z,79
2019-03-20T07:11:02.892Z,79
2019-03-20T07:12:03.242Z,79
2019-03-20T07:13:03.034Z,79
2019-03-20T07:14:03.140Z,79
2019-03-20T07:15:03.019Z,79
2019-03-20T07:16:03.197Z,79
2019-03-20T07:17:03.051Z,79
2019-03-20T07:18:03.005Z,79
2019-03-20T07:19:02.939Z,79
2019-03-20T07:20:03.177Z,79
2019-03-20T07:21:02.904Z,79
2019-03-20T07:22:04.129Z,79
2019-03-20T07:23:02.996Z,79
2019-03-20T07:24:02.880Z,79
2019-03-20T07:25:03.068Z,79
2019-03-20T07:26:03.087Z,79
2019-03-20T07:27:03.752Z,79
2019-03-20T07:28:02.957Z,78
2019-03-20T07:29:03.834Z,78
2019-03-20T07:30:03.728Z,78
2019-03-20T07:31:16.184Z,78
2019-03-20T07:32:04.194Z,78
2019-03-20T07:33:03.677Z,78
2019-03-20T07:34:02.871Z,78
2019-03-20T07:35:02.759Z,78
2019-03-20T07:36:03.651Z,78
2019-03-20T07:37:02.878Z,78
2019-03-20T07:38:03.622Z,78
2019-03-20T07:39:03.758Z,78
2019-03-20T07:40:03.424Z,78
2019-03-20T07:41:03.412Z,78
2019-03-20T07:42:03.477Z,78
2019-03-20T07:43:09.646Z,77
2019-03-20T07:44:03.568Z,77
2019-03-20T07:45:03.717Z,77
2019-03-20T07:46:03.551Z,77
2019-03-20T07:47:03.515Z,77
2019-03-20T07:48:02.858Z,77
2019-03-20T07:49:03.684Z,77
2019-03-20T07:50:03.582Z,77
2019-03-20T07:51:03.681Z,77
2019-03-20T07:52:02.723Z,77
2019-03-20T07:53:03.628Z,77
2019-03-20T07:54:03.712Z,77
2019-03-20T07:55:03.621Z,77
2019-03-20T07:56:03.681Z,76
2019-03-20T07:57:03.640Z,76
2019-03-20T07:58:03.753Z,76
2019-03-20T07:59:03.675Z,76
2019-03-20T08:00:03.426Z,76
2019-03-20T08:01:03.412Z,76
2019-03-20T08:02:03.224Z,76
2019-03-20T08:03:03.404Z,75
2019-03-20T08:04:03.470Z,75
2019-03-20T08:05:03.644Z,75
2019-03-20T08:06:03.347Z,75
2019-03-20T08:07:03.402Z,74
2019-03-20T08:08:08.171Z,74
2019-03-20T08:09:03.479Z,74
2019-03-20T08:10:03.593Z,74
2019-03-20T08:11:03.636Z,74
2019-03-20T08:12:03.613Z,74
2019-03-20T08:13:03.237Z,74
2019-03-20T08:14:03.122Z,74
2019-03-20T08:15:03.372Z,73
2019-03-20T08:16:04.423Z,73
2019-03-20T08:17:02.193Z,73
2019-03-20T08:18:03.720Z,73
2019-03-20T08:19:01.973Z,73
2019-03-20T08:20:01.891Z,73
2019-03-20T08:21:03.686Z,73
2019-03-20T08:22:03.383Z,72
2019-03-20T08:23:03.401Z,72
2019-03-20T08:24:03.447Z,72
2019-03-20T08:25:03.690Z,72
2019-03-20T08:26:03.346Z,71
2019-03-20T08:27:03.313Z,71
2019-03-20T08:28:03.198Z,71
2019-03-20T08:29:03.199Z,71
2019-03-20T08:30:03.301Z,71
2019-03-20T08:31:03.250Z,71
2019-03-20T08:32:03.352Z,70
2019-03-20T08:33:03.632Z,70
2019-03-20T08:34:03.296Z,70
2019-03-20T08:35:03.656Z,69
2019-03-20T08:36:03.604Z,69
2019-03-20T08:37:03.431Z,69
2019-03-20T08:38:03.149Z,69
2019-03-20T08:39:03.163Z,69
2019-03-20T08:40:03.431Z,68
2019-03-20T08:41:03.050Z,68
2019-03-20T08:43:18.821Z,68
2019-03-20T08:44:03.237Z,67
2019-03-20T08:44:14.445Z,68
2019-03-20T08:45:03.260Z,67
2019-03-20T08:46:03.291Z,67
2019-03-20T08:47:03.190Z,67
2019-03-20T08:48:03.148Z,67
2019-03-20T08:49:03.396Z,66
2019-03-20T08:50:02.917Z,66
2019-03-20T08:51:03.046Z,66
2019-03-20T08:52:03.014Z,66
2019-03-20T08:53:03.335Z,66
2019-03-20T08:54:02.980Z,65
2019-03-20T08:55:03.148Z,65
2019-03-20T08:56:02.643Z,65
2019-03-20T08:57:02.964Z,65
2019-03-20T08:58:38.324Z,64
2019-03-20T08:59:18.736Z,64
2019-03-20T09:00:03.343Z,64
2019-03-20T09:01:02.794Z,62
2019-03-20T09:02:03.022Z,62
2019-03-20T09:03:02.903Z,62
2019-03-20T09:04:02.950Z,62
2019-03-20T09:05:02.978Z,62
2019-03-20T09:06:03.120Z,62
2019-03-20T09:07:03.071Z,62
2019-03-20T09:08:03.100Z,61
2019-03-20T09:09:03.196Z,61
2019-03-20T09:10:03.649Z,61
2019-03-20T09:11:03.066Z,61
2019-03-20T09:12:02.919Z,60
2019-03-20T09:13:03.017Z,60
2019-03-20T09:14:04.026Z,60
2019-03-20T09:15:03.992Z,59
2019-03-20T09:16:03.760Z,59
2019-03-20T09:17:02.917Z,59
2019-03-20T09:18:02.939Z,59
2019-03-20T09:19:03.283Z,58
2019-03-20T09:20:03.888Z,56
2019-03-20T09:21:03.425Z,56
2019-03-20T09:22:03.338Z,55
2019-03-20T09:23:03.505Z,55
2019-03-20T09:24:03.599Z,55
2019-03-20T09:25:03.273Z,55
2019-03-20T09:26:03.711Z,55
2019-03-20T09:27:03.521Z,54
2019-03-20T09:28:03.745Z,54
2019-03-20T09:29:03.144Z,54
2019-03-20T09:30:03.624Z,54
2019-03-20T09:31:03.472Z,54
2019-03-20T09:32:03.430Z,54
2019-03-20T09:33:03.390Z,53
2019-03-20T09:34:03.926Z,52
2019-03-20T09:35:03.537Z,52
2019-03-20T09:36:03.056Z,51
2019-03-20T09:37:03.418Z,51
2019-03-20T09:38:03.387Z,51
2019-03-20T09:39:03.237Z,51
2019-03-20T09:40:03.521Z,51
2019-03-20T09:41:03.222Z,51
2019-03-20T09:42:03.156Z,51
2019-03-20T09:43:03.169Z,49
2019-03-20T09:44:03.257Z,49
2019-03-20T09:45:03.557Z,49
2019-03-20T09:46:03.159Z,49
2019-03-20T09:47:03.161Z,49
2019-03-20T09:48:03.363Z,49
2019-03-20T09:49:03.309Z,49
2019-03-20T09:50:03.389Z,48
2019-03-20T09:51:03.329Z,48
2019-03-20T09:52:03.616Z,48
2019-03-20T09:53:03.248Z,49
2019-03-20T09:54:03.724Z,48
2019-03-20T09:55:03.607Z,48
2019-03-20T09:56:03.652Z,48
2019-03-20T09:57:03.163Z,48
2019-03-20T09:58:12.237Z,48
2019-03-20T09:59:03.686Z,47
2019-03-20T10:00:03.336Z,47
2019-03-20T10:01:03.426Z,47
2019-03-20T10:02:03.339Z,47
2019-03-20T10:03:03.547Z,47
2019-03-20T10:04:03.140Z,47
2019-03-20T10:05:03.441Z,47
2019-03-20T10:06:03.176Z,47
2019-03-20T10:07:03.127Z,47
2019-03-20T10:08:02.878Z,47
2019-03-20T10:09:03.478Z,47
2019-03-20T10:10:03.706Z,47
2019-03-20T10:11:03.423Z,47
2019-03-20T10:12:03.515Z,46
2019-03-20T10:13:03.361Z,46
2019-03-20T10:14:03.254Z,45
2019-03-20T10:15:03.609Z,43
2019-03-20T10:16:03.276Z,44
2019-03-20T10:17:03.017Z,45
2019-03-20T10:18:19.126Z,45
2019-03-20T10:19:03.064Z,45
2019-03-20T10:22:03.463Z,45
2019-03-20T10:22:07.590Z,45
2019-03-20T10:22:17.277Z,45
2019-03-20T10:23:03.290Z,45
2019-03-20T10:24:03.385Z,45
2019-03-20T10:25:02.982Z,45
2019-03-20T10:26:03.165Z,44
2019-03-20T10:27:03.080Z,44
2019-03-20T10:28:02.995Z,45
2019-03-20T10:29:03.262Z,45
2019-03-20T10:30:02.934Z,45
2019-03-20T10:31:03.245Z,44
2019-03-20T10:32:03.202Z,44
2019-03-20T10:33:02.979Z,44
2019-03-20T10:34:03.009Z,44
2019-03-20T10:35:03.196Z,44
2019-03-20T10:36:03.157Z,44
2019-03-20T10:37:03.182Z,44
2019-03-20T10:38:03.130Z,44
2019-03-20T10:39:07.381Z,43
2019-03-20T10:40:03.196Z,44
2019-03-20T10:41:03.151Z,43
2019-03-20T10:42:02.941Z,41
2019-03-20T10:43:03.257Z,42
2019-03-20T10:44:03.138Z,41
2019-03-20T10:45:03.059Z,40
2019-03-20T10:46:02.979Z,39
2019-03-20T10:47:03.204Z,40
2019-03-20T10:48:03.005Z,41
2019-03-20T10:49:03.069Z,40
2019-03-20T10:50:03.986Z,41
2019-03-20T10:51:03.761Z,41
2019-03-20T10:52:03.958Z,41
2019-03-20T10:53:03.605Z,42
2019-03-20T10:54:03.767Z,40
2019-03-20T10:55:03.717Z,40
2019-03-20T10:56:03.608Z,40
2019-03-20T10:57:03.722Z,41
2019-03-20T10:58:03.721Z,40
2019-03-20T10:59:03.764Z,40
2019-03-20T11:00:03.414Z,40
2019-03-20T11:01:03.727Z,40
2019-03-20T11:02:03.298Z,40
2019-03-20T11:03:02.916Z,41
2019-03-20T11:04:03.905Z,41
2019-03-20T11:05:02.961Z,41
2019-03-20T11:06:03.821Z,41
2019-03-20T11:07:02.985Z,41
2019-03-20T11:08:03.696Z,41
2019-03-20T11:09:03.631Z,41
2019-03-20T11:10:02.953Z,40
2019-03-20T11:11:02.823Z,40
2019-03-20T11:12:03.753Z,40
2019-03-20T11:13:03.811Z,40
2019-03-20T11:14:03.881Z,40
2019-03-20T11:15:03.513Z,40
2019-03-20T11:16:03.203Z,40
2019-03-20T11:17:03.287Z,40
2019-03-20T11:18:03.560Z,40
2019-03-20T11:19:03.514Z,40
2019-03-20T11:20:03.729Z,40
2019-03-20T11:21:03.117Z,40
2019-03-20T11:22:03.633Z,40
2019-03-20T11:23:03.649Z,40
2019-03-20T11:24:03.119Z,40
2019-03-20T11:25:03.096Z,40
2019-03-20T11:26:03.309Z,39
2019-03-20T11:27:03.426Z,39
2019-03-20T11:28:03.839Z,39
2019-03-20T11:29:03.349Z,39
2019-03-20T11:30:03.271Z,39
2019-03-20T11:31:03.295Z,39
2019-03-20T11:32:03.179Z,39
2019-03-20T11:33:03.288Z,39
2019-03-20T11:34:03.264Z,39
2019-03-20T11:35:03.352Z,39
2019-03-20T11:36:02.950Z,39
2019-03-20T11:37:03.030Z,39
2019-03-20T11:38:03.383Z,39
2019-03-20T11:39:02.862Z,38
2019-03-20T11:40:03.244Z,38
2019-03-20T11:41:03.726Z,39
2019-03-20T11:42:03.095Z,39
2019-03-20T11:43:02.992Z,39
2019-03-20T11:44:03.698Z,39
2019-03-20T11:45:03.050Z,39
2019-03-20T11:46:03.699Z,39
2019-03-20T11:47:03.536Z,39
2019-03-20T11:48:03.952Z,39
2019-03-20T11:49:03.825Z,39
2019-03-20T11:50:03.221Z,39
2019-03-20T11:51:03.408Z,39
2019-03-20T11:52:06.605Z,39
2019-03-20T11:53:03.825Z,39
2019-03-20T11:54:03.852Z,39
2019-03-20T11:55:03.937Z,39
2019-03-20T11:56:03.615Z,39
2019-03-20T11:57:03.688Z,39
2019-03-20T11:58:03.389Z,39
2019-03-20T11:59:03.254Z,39
2019-03-20T12:00:03.492Z,39
2019-03-20T12:01:03.752Z,39
2019-03-20T12:02:03.689Z,39
2019-03-20T12:03:03.864Z,39
2019-03-20T12:04:03.499Z,39
2019-03-20T12:05:04.004Z,39
2019-03-20T12:06:03.140Z,39
2019-03-20T12:07:03.732Z,39
2019-03-20T12:08:03.609Z,39
2019-03-20T12:09:03.590Z,39
2019-03-20T12:10:03.748Z,39
2019-03-20T12:11:03.168Z,39
2019-03-20T12:12:03.379Z,39
2019-03-20T12:13:03.398Z,39
2019-03-20T12:14:03.701Z,39
2019-03-20T12:15:03.342Z,39
2019-03-20T12:16:03.642Z,39
2019-03-20T12:17:03.660Z,39
2019-03-20T12:18:03.400Z,39
2019-03-20T12:19:03.559Z,39
2019-03-20T12:20:03.718Z,39
2019-03-20T12:21:03.554Z,39
2019-03-20T12:22:03.336Z,39
2019-03-20T12:23:03.618Z,39
2019-03-20T12:24:03.389Z,38
2019-03-20T12:25:03.547Z,38
2019-03-20T12:26:03.976Z,37
2019-03-20T12:27:15.876Z,38
2019-03-20T12:28:03.225Z,38
2019-03-20T12:29:03.515Z,39
2019-03-20T12:30:03.609Z,39
2019-03-20T12:31:03.498Z,39
2019-03-20T12:32:03.415Z,39
2019-03-20T12:33:03.247Z,38
2019-03-20T12:34:03.215Z,38
2019-03-20T12:35:03.024Z,39
2019-03-20T12:36:03.254Z,39
2019-03-20T12:37:03.224Z,39
2019-03-20T12:38:15.732Z,39
2019-03-20T12:39:03.000Z,39
2019-03-20T12:40:03.227Z,39
2019-03-20T12:41:02.836Z,39
2019-03-20T12:42:02.981Z,39
2019-03-20T12:43:03.417Z,39
2019-03-20T12:44:03.953Z,39
2019-03-20T12:45:03.175Z,38
2019-03-20T12:46:03.872Z,38
2019-03-20T12:47:04.066Z,38
2019-03-20T12:48:03.635Z,37
2019-03-20T12:49:03.733Z,37
2019-03-20T12:50:03.599Z,37
2019-03-20T12:51:02.802Z,37
2019-03-20T12:52:03.412Z,38
2019-03-20T12:53:03.724Z,38
2019-03-20T12:54:03.596Z,38
2019-03-20T12:55:02.889Z,38
2019-03-20T12:56:03.687Z,37
2019-03-20T12:57:03.583Z,37
2019-03-20T12:58:03.768Z,37
2019-03-20T12:59:03.917Z,38
2019-03-20T13:00:03.875Z,38
2019-03-20T13:01:03.124Z,37
2019-03-20T13:02:02.908Z,37
2019-03-20T13:03:03.302Z,37
2019-03-20T13:04:03.134Z,37
2019-03-20T13:05:03.039Z,38
2019-03-20T13:06:03.071Z,38
2019-03-20T13:07:02.910Z,38
2019-03-20T13:08:06.704Z,38
2019-03-20T13:09:04.121Z,38
2019-03-20T13:10:04.249Z,38
2019-03-20T13:11:03.839Z,38
2019-03-20T13:12:03.646Z,37
2019-03-20T13:13:03.984Z,37
2019-03-20T13:14:03.607Z,37
2019-03-20T13:15:03.702Z,37
2019-03-20T13:16:03.577Z,38
2019-03-20T13:17:03.599Z,38
2019-03-20T13:18:03.545Z,38
2019-03-20T13:19:03.628Z,38
2019-03-20T13:20:03.511Z,38
2019-03-20T13:21:03.582Z,38
2019-03-20T13:22:03.659Z,38
2019-03-20T13:23:03.335Z,38
2019-03-20T13:24:03.302Z,38
2019-03-20T13:25:03.846Z,38
2019-03-20T13:26:03.781Z,38
2019-03-20T13:27:03.423Z,38
2019-03-20T13:28:03.586Z,38
2019-03-20T13:29:03.250Z,38
2019-03-20T13:30:03.531Z,38
2019-03-20T13:31:03.436Z,38
2019-03-20T13:32:04.028Z,38
2019-03-20T13:33:03.189Z,38
2019-03-20T13:34:03.072Z,38
2019-03-20T13:35:03.442Z,38
2019-03-20T13:36:03.220Z,38
2019-03-20T13:37:03.098Z,38
2019-03-20T13:38:03.223Z,38
2019-03-20T13:39:03.311Z,38
2019-03-20T13:40:15.116Z,38
2019-03-20T13:41:03.332Z,38
2019-03-20T13:42:03.390Z,38
2019-03-20T13:43:03.349Z,38
2019-03-20T13:44:03.069Z,38
2019-03-20T13:45:03.498Z,38
2019-03-20T13:46:03.360Z,38
2019-03-20T13:47:03.188Z,38
2019-03-20T13:48:03.181Z,37
2019-03-20T13:49:03.348Z,37
2019-03-20T13:50:03.163Z,36
2019-03-20T13:51:03.081Z,37
2019-03-20T13:52:03.251Z,37
2019-03-20T13:53:02.992Z,37
2019-03-20T13:54:03.216Z,38
2019-03-20T13:55:03.163Z,38
2019-03-20T13:56:03.246Z,38
2019-03-20T13:57:03.336Z,38
2019-03-20T13:58:03.054Z,38
2019-03-20T13:59:03.223Z,38
2019-03-20T14:00:03.264Z,38
2019-03-20T14:01:03.924Z,38
2019-03-20T14:02:03.361Z,38
2019-03-20T14:03:03.264Z,38
2019-03-20T14:04:03.050Z,38
2019-03-20T14:05:02.965Z,38
2019-03-20T14:06:03.877Z,38
2019-03-20T14:07:02.852Z,38
2019-03-20T14:08:03.828Z,38
2019-03-20T14:09:03.006Z,38
2019-03-20T14:10:02.958Z,37
2019-03-20T14:11:02.822Z,37
2019-03-20T14:12:04.271Z,37
2019-03-20T14:13:03.052Z,37
2019-03-20T14:14:02.835Z,37
2019-03-20T14:15:03.178Z,38